Time;durP1;ratioP1;P1;durP2;ratioP2;P2;SDS_P1;SDS_P2;PMS_P1;PMS_P2;Temp;Humidity;BMP_temperature;BMP_pressure;BME280_temperature;BME280_humidity;BME280_pressure;Samples;Min_cycle;Max_cycle;Signal;HPM_P1;HPM_P2
2021/07/15 00:00:11;;;;;;;1.37;0.93;;;16.60;99.70;;;;;;5032879;28;20479;-67
2021/07/15 00:02:38;;;;;;;1.50;1.17;;;16.60;99.70;;;;;;5018752;28;20445;-67
2021/07/15 00:05:10;;;;;;;1.30;0.90;;;16.60;99.70;;;;;;5013101;28;20449;-67
2021/07/15 00:07:36;;;;;;;1.30;1.03;;;16.50;99.70;;;;;;5013022;28;20469;-67
2021/07/15 00:10:08;;;;;;;1.30;1.00;;;16.50;99.70;;;;;;5010709;28;20444;-67
2021/07/15 00:12:35;;;;;;;2.30;0.97;;;16.60;99.70;;;;;;5025220;28;20444;-68
2021/07/15 00:15:03;;;;;;;1.67;1.17;;;16.60;99.70;;;;;;5031506;28;20456;-67
2021/07/15 00:17:30;;;;;;;1.90;1.13;;;16.60;99.70;;;;;;5032293;28;20563;-67
2021/07/15 00:19:56;;;;;;;1.50;1.00;;;16.60;99.70;;;;;;5032964;28;20476;-67
2021/07/15 00:22:24;;;;;;;1.43;1.00;;;16.60;99.70;;;;;;5020157;28;20453;-67
2021/07/15 00:24:52;;;;;;;1.43;1.20;;;16.60;99.70;;;;;;5012576;28;20449;-67
2021/07/15 00:27:19;;;;;;;1.30;1.00;;;16.50;99.70;;;;;;5012558;28;20474;-67
2021/07/15 00:29:46;;;;;;;1.30;1.03;;;16.60;99.70;;;;;;5012122;28;20438;-67
2021/07/15 00:32:12;;;;;;;1.37;0.93;;;16.50;99.70;;;;;;5022568;28;21033;-67
2021/07/15 00:34:39;;;;;;;1.20;0.90;;;16.60;99.70;;;;;;5030908;28;20506;-67
2021/07/15 00:37:06;;;;;;;1.30;1.00;;;16.60;99.70;;;;;;5032376;28;20527;-67
2021/07/15 00:39:34;;;;;;;1.20;0.90;;;16.50;99.70;;;;;;5031975;28;20481;-67
2021/07/15 00:42:00;;;;;;;1.47;0.97;;;16.30;99.70;;;;;;5023821;28;20446;-67
2021/07/15 00:44:27;;;;;;;1.77;1.00;;;16.20;99.70;;;;;;5011807;28;20449;-67
2021/07/15 00:46:54;;;;;;;1.30;0.90;;;16.20;99.70;;;;;;5012281;28;20523;-67
2021/07/15 00:49:20;;;;;;;1.30;0.90;;;16.20;99.70;;;;;;5012156;28;20870;-67
2021/07/15 00:51:47;;;;;;;1.27;0.90;;;16.20;99.70;;;;;;5018197;28;20452;-67
2021/07/15 00:54:14;;;;;;;1.40;1.00;;;16.10;99.70;;;;;;5031800;28;20445;-67
2021/07/15 00:56:42;;;;;;;1.20;0.90;;;16.10;99.70;;;;;;5031714;28;20954;-67
2021/07/15 00:59:09;;;;;;;1.37;0.93;;;15.90;99.70;;;;;;5032142;28;20436;-67
2021/07/15 01:01:36;;;;;;;1.20;0.80;;;15.90;99.70;;;;;;5026961;28;20883;-67
2021/07/15 01:04:03;;;;;;;1.20;0.90;;;15.70;99.70;;;;;;5011944;28;20508;-65
2021/07/15 01:06:29;;;;;;;1.20;0.90;;;15.80;99.70;;;;;;5011610;28;20466;-68
2021/07/15 01:08:56;;;;;;;1.20;0.90;;;15.80;99.70;;;;;;5012067;28;20507;-67
2021/07/15 01:11:32;;;;;;;1.30;0.90;;;15.80;99.70;;;;;;5013807;28;20463;-67
2021/07/15 01:14:03;;;;;;;2.83;0.90;;;15.70;99.70;;;;;;5031383;28;20880;-68
2021/07/15 01:16:34;;;;;;;1.40;0.90;;;15.70;99.70;;;;;;5031421;28;20480;-67
2021/07/15 01:19:35;;;;;;;1.20;0.90;;;15.60;99.70;;;;;;5031138;28;20448;-67
2021/07/15 01:22:12;;;;;;;1.20;0.93;;;15.60;99.70;;;;;;5003120;28;20449;-67
2021/07/15 01:25:25;;;;;;;1.30;0.90;;;15.50;99.70;;;;;;5011207;28;20445;-67
2021/07/15 01:28:07;;;;;;;1.37;0.87;;;15.50;99.70;;;;;;5011510;28;20469;-67
2021/07/15 01:30:40;;;;;;;1.30;0.90;;;15.50;99.70;;;;;;5010966;28;20941;-67
2021/07/15 01:33:15;;;;;;;1.97;0.90;;;15.50;99.70;;;;;;5029621;28;20502;-67
2021/07/15 01:35:46;;;;;;;1.20;0.90;;;15.50;99.70;;;;;;5031035;28;20491;-67
2021/07/15 01:38:14;;;;;;;1.30;0.90;;;15.50;99.70;;;;;;5031017;28;20448;-67
2021/07/15 01:40:45;;;;;;;1.20;0.90;;;15.60;99.70;;;;;;5031190;28;20484;-67
2021/07/15 01:43:16;;;;;;;1.20;0.80;;;15.50;99.70;;;;;;5012452;28;20450;-67
2021/07/15 01:45:44;;;;;;;1.40;1.00;;;15.50;99.70;;;;;;5010512;28;20503;-67
2021/07/15 01:48:12;;;;;;;1.30;0.90;;;15.50;99.70;;;;;;5011262;28;20532;-67
2021/07/15 01:50:40;;;;;;;1.20;0.87;;;15.50;99.70;;;;;;5011454;28;20445;-67
2021/07/15 01:53:07;;;;;;;1.30;1.10;;;15.50;99.70;;;;;;5030915;28;20444;-67
2021/07/15 01:55:34;;;;;;;1.30;1.03;;;15.50;99.70;;;;;;5028676;28;20448;-67
2021/07/15 01:58:03;;;;;;;1.50;0.80;;;15.50;99.70;;;;;;5030694;28;20465;-67
2021/07/15 02:00:30;;;;;;;1.20;0.90;;;15.50;99.70;;;;;;5030912;28;20701;-67
2021/07/15 02:02:59;;;;;;;1.20;0.97;;;15.40;99.70;;;;;;5011376;28;20456;-67
2021/07/15 02:05:28;;;;;;;1.70;1.10;;;15.40;99.70;;;;;;5010935;28;20449;-67
2021/07/15 02:07:55;;;;;;;1.80;1.00;;;15.40;99.70;;;;;;5010058;28;20476;-67
2021/07/15 02:10:26;;;;;;;1.30;0.90;;;15.40;99.70;;;;;;5011167;28;20446;-68
2021/07/15 02:12:53;;;;;;;1.30;1.00;;;15.40;99.70;;;;;;5028585;28;20452;-67
2021/07/15 02:15:20;;;;;;;1.20;0.90;;;15.40;99.70;;;;;;5030346;28;20831;-67
2021/07/15 02:17:48;;;;;;;1.20;0.80;;;15.40;99.70;;;;;;5030005;28;20489;-67
2021/07/15 02:20:20;;;;;;;1.20;0.83;;;15.50;99.70;;;;;;5030414;28;20488;-67
2021/07/15 02:22:47;;;;;;;1.60;1.00;;;15.30;99.70;;;;;;5012810;28;20956;-67
2021/07/15 02:25:15;;;;;;;1.60;0.90;;;15.30;99.70;;;;;;5010362;28;20503;-67
2021/07/15 02:27:45;;;;;;;1.40;1.00;;;15.30;99.70;;;;;;5010553;28;20512;-67
2021/07/15 02:30:15;;;;;;;1.30;1.00;;;15.30;99.70;;;;;;5010150;28;20549;-67
2021/07/15 02:32:45;;;;;;;1.20;0.90;;;15.20;99.70;;;;;;5026618;28;20453;-67
2021/07/15 02:35:18;;;;;;;1.30;1.00;;;15.20;99.70;;;;;;5029881;28;20503;-67
2021/07/15 02:37:46;;;;;;;1.20;0.90;;;15.20;99.70;;;;;;5030179;28;20526;-67
2021/07/15 02:40:15;;;;;;;1.20;0.90;;;15.20;99.70;;;;;;5030179;28;20476;-67
2021/07/15 02:42:44;;;;;;;1.80;1.10;;;15.20;99.70;;;;;;5013671;28;20446;-67
2021/07/15 02:45:15;;;;;;;1.20;0.90;;;15.20;99.70;;;;;;5010016;28;20532;-67
2021/07/15 02:47:42;;;;;;;1.40;0.90;;;15.20;99.70;;;;;;5010461;28;20465;-67
2021/07/15 02:50:11;;;;;;;1.20;0.90;;;15.20;99.70;;;;;;5010343;28;20449;-67
2021/07/15 02:52:39;;;;;;;1.23;0.90;;;15.10;99.70;;;;;;5025044;28;20501;-67
2021/07/15 02:55:07;;;;;;;1.80;1.10;;;15.20;99.70;;;;;;5029744;28;20448;-67
2021/07/15 02:57:39;;;;;;;1.30;1.00;;;15.20;99.70;;;;;;5031187;28;20984;-67
2021/07/15 03:00:09;;;;;;;1.30;0.90;;;15.20;99.70;;;;;;5034491;28;20982;-67
2021/07/15 03:02:44;;;;;;;1.20;0.90;;;15.30;99.70;;;;;;5018373;28;20492;-68
2021/07/15 03:05:13;;;;;;;1.30;1.00;;;15.30;99.70;;;;;;5013801;28;20441;-67
2021/07/15 03:07:46;;;;;;;1.30;0.90;;;15.30;99.70;;;;;;5014128;28;20469;-67
2021/07/15 03:10:15;;;;;;;1.23;1.00;;;15.30;99.70;;;;;;5014342;28;20437;-67
2021/07/15 03:12:43;;;;;;;1.30;0.93;;;15.30;99.70;;;;;;5029318;28;20478;-67
2021/07/15 03:15:11;;;;;;;1.40;1.10;;;15.30;99.70;;;;;;5033644;28;20447;-67
2021/07/15 03:17:42;;;;;;;1.40;1.03;;;15.30;99.70;;;;;;5033874;28;20484;-67
2021/07/15 03:20:13;;;;;;;1.30;0.90;;;15.30;99.70;;;;;;5025186;28;20485;-67
2021/07/15 03:22:45;;;;;;;1.30;0.90;;;15.30;99.70;;;;;;5011989;28;20445;-68
2021/07/15 03:25:15;;;;;;;1.20;0.90;;;15.20;99.70;;;;;;5013361;28;20936;-67
2021/07/15 03:27:44;;;;;;;1.20;0.90;;;15.20;99.70;;;;;;5014130;28;20980;-67
2021/07/15 03:30:13;;;;;;;1.30;0.90;;;15.30;99.70;;;;;;5021417;28;20747;-67
2021/07/15 03:32:41;;;;;;;1.30;1.00;;;15.30;99.70;;;;;;5033681;28;20452;-67
2021/07/15 03:35:10;;;;;;;1.30;0.87;;;15.30;99.70;;;;;;5032958;28;20453;-67
2021/07/15 03:37:38;;;;;;;1.30;0.90;;;15.30;99.70;;;;;;5033431;28;20475;-67
2021/07/15 03:40:07;;;;;;;1.20;0.80;;;15.30;99.70;;;;;;5026103;28;20818;-67
2021/07/15 03:42:36;;;;;;;1.20;0.90;;;15.30;99.70;;;;;;5013489;28;20456;-67
2021/07/15 03:45:03;;;;;;;1.20;0.90;;;15.40;99.70;;;;;;5013369;28;20870;-67
2021/07/15 03:47:32;;;;;;;1.30;0.90;;;15.40;99.70;;;;;;5013377;28;20469;-67
2021/07/15 03:49:59;;;;;;;1.20;0.90;;;15.40;99.70;;;;;;5019288;28;20443;-67
2021/07/15 03:52:26;;;;;;;1.20;0.90;;;15.30;99.70;;;;;;5019135;28;20453;-67
2021/07/15 03:54:54;;;;;;;1.20;0.87;;;15.30;99.70;;;;;;5013347;28;20449;-67
2021/07/15 03:57:27;;;;;;;2.60;1.00;;;15.30;99.70;;;;;;5013168;28;20468;-67
2021/07/15 03:59:55;;;;;;;1.30;1.00;;;15.30;99.70;;;;;;5013448;28;21019;-67
2021/07/15 04:02:25;;;;;;;1.20;0.90;;;15.30;99.70;;;;;;5013654;28;20474;-67
2021/07/15 04:04:55;;;;;;;1.20;0.80;;;15.40;99.70;;;;;;5013119;28;20511;-67
2021/07/15 04:07:22;;;;;;;2.17;1.00;;;15.40;99.70;;;;;;5013297;28;20515;-67
2021/07/15 04:09:50;;;;;;;1.30;1.00;;;15.40;99.70;;;;;;5012707;28;20864;-68
2021/07/15 04:12:20;;;;;;;1.20;0.80;;;15.40;99.70;;;;;;5023622;28;20495;-67
2021/07/15 04:15:04;;;;;;;1.37;0.90;;;15.40;99.70;;;;;;5032405;28;20879;-67
2021/07/15 04:17:34;;;;;;;1.40;1.00;;;15.40;99.70;;;;;;5032810;28;20497;-67
2021/07/15 04:20:03;;;;;;;1.20;0.83;;;15.40;99.70;;;;;;5033010;28;20432;-67
2021/07/15 04:22:30;;;;;;;1.20;0.90;;;15.40;99.70;;;;;;5031142;28;20541;-67
2021/07/15 04:24:58;;;;;;;1.33;0.93;;;15.40;99.70;;;;;;5015921;28;20449;-68
2021/07/15 04:27:27;;;;;;;1.20;0.90;;;15.50;99.70;;;;;;5013226;28;20938;-67
2021/07/15 04:30:00;;;;;;;1.40;1.10;;;15.50;99.70;;;;;;5012182;28;21023;-67
2021/07/15 04:32:29;;;;;;;1.20;0.90;;;15.50;99.70;;;;;;5012698;28;20932;-68
2021/07/15 04:34:57;;;;;;;1.20;0.90;;;15.50;99.70;;;;;;5012288;28;20827;-67
2021/07/15 04:37:24;;;;;;;1.23;0.97;;;15.60;99.70;;;;;;5012824;28;20462;-67
2021/07/15 04:39:51;;;;;;;1.20;0.90;;;15.60;99.70;;;;;;5012681;28;20454;-67
2021/07/15 04:42:19;;;;;;;1.63;1.10;;;15.60;99.70;;;;;;5012770;28;20477;-68
2021/07/15 04:44:47;;;;;;;1.20;0.80;;;15.70;99.70;;;;;;5008708;28;20445;-67
2021/07/15 04:47:19;;;;;;;1.20;0.90;;;15.70;99.70;;;;;;5008672;28;20458;-68
2021/07/15 04:49:46;;;;;;;1.30;0.90;;;15.70;99.70;;;;;;5011177;28;20453;-67
2021/07/15 04:52:13;;;;;;;1.20;0.80;;;15.80;99.70;;;;;;5008365;28;20828;-67
2021/07/15 04:54:40;;;;;;;1.50;1.00;;;15.70;99.70;;;;;;5007933;28;20520;-68
2021/07/15 04:57:10;;;;;;;1.20;0.87;;;15.70;99.70;;;;;;5010943;28;20907;-68
2021/07/15 04:59:40;;;;;;;1.77;1.23;;;15.70;99.70;;;;;;5010955;28;20936;-68
2021/07/15 05:02:07;;;;;;;1.20;0.80;;;15.70;99.70;;;;;;5010727;28;20564;-67
2021/07/15 05:04:35;;;;;;;1.20;0.90;;;15.70;99.70;;;;;;5010795;28;20449;-68
2021/07/15 05:07:02;;;;;;;1.40;1.00;;;15.70;99.70;;;;;;5011101;28;20473;-67
2021/07/15 05:09:29;;;;;;;1.20;0.90;;;15.70;99.70;;;;;;5010776;28;20453;-68
2021/07/15 05:11:55;;;;;;;1.27;0.93;;;15.80;99.70;;;;;;5011619;28;20457;-67
2021/07/15 05:14:22;;;;;;;1.20;0.90;;;15.80;99.70;;;;;;5019071;28;20959;-67
2021/07/15 05:16:49;;;;;;;1.50;0.90;;;15.80;99.70;;;;;;5031583;28;20476;-67
2021/07/15 05:19:16;;;;;;;1.20;0.90;;;15.80;99.70;;;;;;5031195;28;20959;-67
2021/07/15 05:21:44;;;;;;;1.20;0.90;;;16.00;99.70;;;;;;5031045;28;20872;-67
2021/07/15 05:24:11;;;;;;;1.30;0.93;;;16.00;99.70;;;;;;5029077;28;20452;-67
2021/07/15 05:26:37;;;;;;;1.20;0.90;;;16.00;99.70;;;;;;5010607;28;20472;-67
2021/07/15 05:29:04;;;;;;;1.30;0.90;;;16.00;99.70;;;;;;5010768;28;20533;-67
2021/07/15 05:31:31;;;;;;;1.20;0.90;;;16.00;99.70;;;;;;5038161;22;21129;-67
2021/07/15 05:33:57;;;;;;;1.20;0.80;;;16.10;99.70;;;;;;5030215;28;20452;-67
2021/07/15 05:36:24;;;;;;;1.40;0.90;;;16.10;99.70;;;;;;5030305;28;20445;-67
2021/07/15 05:38:52;;;;;;;1.30;0.90;;;16.00;99.70;;;;;;5030244;28;20449;-67
2021/07/15 05:41:19;;;;;;;1.33;0.90;;;16.10;99.70;;;;;;5026142;28;20492;-67
2021/07/15 05:43:45;;;;;;;1.30;0.90;;;16.00;99.70;;;;;;5030883;28;20448;-67
2021/07/15 05:46:12;;;;;;;1.20;0.80;;;16.10;99.70;;;;;;5025054;28;20441;-67
2021/07/15 05:48:39;;;;;;;1.20;0.90;;;16.10;99.70;;;;;;5010577;28;20452;-67
2021/07/15 05:51:05;;;;;;;1.20;0.80;;;16.20;99.70;;;;;;5009809;28;20469;-67
2021/07/15 05:53:32;;;;;;;1.53;0.90;;;16.20;99.70;;;;;;5011190;28;20457;-67
2021/07/15 05:56:00;;;;;;;1.20;0.80;;;16.30;99.70;;;;;;5010459;28;20808;-67
2021/07/15 05:58:27;;;;;;;2.33;1.17;;;16.30;99.70;;;;;;5010862;28;20453;-67
2021/07/15 06:00:53;;;;;;;1.20;0.80;;;16.30;99.70;;;;;;5010720;28;20473;-67
2021/07/15 06:03:20;;;;;;;1.30;0.90;;;16.30;99.70;;;;;;5029245;28;20550;-67
2021/07/15 06:05:47;;;;;;;1.27;0.90;;;16.30;99.70;;;;;;5030006;28;20456;-67
2021/07/15 06:08:13;;;;;;;2.23;0.90;;;16.40;99.70;;;;;;5030104;28;20502;-67
2021/07/15 06:10:40;;;;;;;1.20;0.90;;;16.40;99.70;;;;;;5030335;28;20472;-67
2021/07/15 06:13:08;;;;;;;1.20;0.90;;;16.50;99.70;;;;;;5030117;28;20951;-67
2021/07/15 06:15:35;;;;;;;1.20;0.90;;;16.50;99.70;;;;;;5030041;28;20506;-67
2021/07/15 06:18:01;;;;;;;1.30;1.00;;;16.50;99.70;;;;;;5030074;28;20824;-67
2021/07/15 06:20:29;;;;;;;5.00;1.10;;;16.50;99.70;;;;;;5029860;28;20473;-67
2021/07/15 06:22:55;;;;;;;1.30;0.90;;;16.60;99.70;;;;;;5029975;28;20853;-67
2021/07/15 06:25:25;;;;;;;1.40;1.13;;;16.60;99.70;;;;;;5029930;28;20481;-67
2021/07/15 06:27:52;;;;;;;1.27;1.00;;;16.60;99.70;;;;;;5029830;28;20455;-67
2021/07/15 06:30:21;;;;;;;1.20;0.80;;;16.60;99.70;;;;;;5029647;28;20994;-67
2021/07/15 06:32:48;;;;;;;1.30;1.00;;;16.70;99.70;;;;;;5028338;28;20444;-67
2021/07/15 06:35:21;;;;;;;1.20;0.90;;;16.60;99.70;;;;;;5028895;28;20448;-67
2021/07/15 06:37:51;;;;;;;1.30;0.90;;;16.60;99.70;;;;;;5029727;28;20448;-67
2021/07/15 06:40:18;;;;;;;1.40;1.00;;;16.80;99.70;;;;;;5029731;28;20472;-67
2021/07/15 06:42:44;;;;;;;1.20;0.90;;;17.10;99.70;;;;;;5029661;28;20476;-67
2021/07/15 06:45:12;;;;;;;3.00;1.10;;;17.00;99.70;;;;;;5029212;28;20448;-67
2021/07/15 06:47:41;;;;;;;1.20;0.90;;;17.00;99.70;;;;;;5029620;28;20463;-67
2021/07/15 06:50:10;;;;;;;1.30;0.87;;;17.00;99.70;;;;;;5029968;28;20448;-67
2021/07/15 06:52:38;;;;;;;1.30;1.00;;;17.00;99.70;;;;;;5029886;28;20494;-67
2021/07/15 06:55:06;;;;;;;1.20;0.90;;;17.10;99.70;;;;;;5029603;28;20480;-67
2021/07/15 06:57:34;;;;;;;1.30;0.97;;;17.20;99.70;;;;;;5029738;28;20448;-67
2021/07/15 07:00:01;;;;;;;1.50;0.90;;;17.20;99.70;;;;;;5027976;28;20535;-67
2021/07/15 07:02:28;;;;;;;1.30;0.90;;;17.20;99.70;;;;;;5022571;28;20489;-67
2021/07/15 07:04:58;;;;;;;1.23;1.00;;;17.20;99.70;;;;;;5009519;28;20450;-67
2021/07/15 07:07:25;;;;;;;1.30;1.00;;;17.30;99.70;;;;;;5010019;28;20461;-67
2021/07/15 07:09:52;;;;;;;1.20;0.90;;;17.20;99.70;;;;;;5009728;28;20446;-67
2021/07/15 07:12:19;;;;;;;1.30;0.90;;;17.20;99.70;;;;;;5009795;28;20469;-67
2021/07/15 07:14:45;;;;;;;1.30;1.00;;;17.10;99.70;;;;;;5009506;28;20459;-67
2021/07/15 07:17:12;;;;;;;1.20;0.90;;;17.00;99.70;;;;;;5018528;28;20535;-67
2021/07/15 07:19:39;;;;;;;1.30;0.90;;;17.10;99.70;;;;;;5029432;28;20471;-67
2021/07/15 07:22:07;;;;;;;1.53;1.00;;;17.10;99.70;;;;;;5029490;28;20493;-67
2021/07/15 07:24:34;;;;;;;1.20;0.90;;;17.10;99.70;;;;;;5029050;28;20531;-67
2021/07/15 07:27:00;;;;;;;1.20;0.90;;;17.10;99.70;;;;;;5029566;28;20444;-67
2021/07/15 07:29:27;;;;;;;1.27;0.90;;;17.10;99.70;;;;;;5029038;28;20475;-67
2021/07/15 07:31:54;;;;;;;1.20;0.83;;;17.00;99.70;;;;;;5029337;28;21013;-67
2021/07/15 07:34:20;;;;;;;1.30;0.90;;;17.10;99.70;;;;;;5029178;28;20892;-67
2021/07/15 07:36:47;;;;;;;1.67;1.00;;;17.30;99.70;;;;;;5029296;28;20459;-67
2021/07/15 07:39:15;;;;;;;1.20;0.90;;;17.40;99.70;;;;;;5029363;28;20448;-67
2021/07/15 07:41:42;;;;;;;1.30;0.90;;;17.40;99.70;;;;;;5029340;28;20496;-67
2021/07/15 07:44:09;;;;;;;1.27;0.90;;;17.60;99.70;;;;;;5030693;28;20563;-67
2021/07/15 07:46:36;;;;;;;1.53;1.00;;;17.60;99.70;;;;;;5032935;28;20456;-67
2021/07/15 07:49:02;;;;;;;1.40;0.90;;;17.60;99.70;;;;;;5032896;28;20449;-67
2021/07/15 07:51:31;;;;;;;1.50;0.97;;;17.50;99.70;;;;;;5032753;28;20568;-68
2021/07/15 07:53:58;;;;;;;1.20;0.90;;;17.50;99.70;;;;;;5032697;28;20935;-67
2021/07/15 07:56:26;;;;;;;1.50;1.10;;;17.50;99.70;;;;;;5032371;28;20451;-67
2021/07/15 07:58:53;;;;;;;1.40;0.90;;;17.40;99.70;;;;;;5032425;28;20460;-67
2021/07/15 08:01:20;;;;;;;1.30;0.93;;;17.40;99.70;;;;;;5032613;28;20464;-67
2021/07/15 08:03:47;;;;;;;1.43;1.00;;;17.50;99.70;;;;;;5032548;28;20444;-67
2021/07/15 08:06:14;;;;;;;1.20;0.90;;;17.60;99.70;;;;;;5032418;28;20452;-68
2021/07/15 08:08:41;;;;;;;1.20;0.90;;;17.60;99.70;;;;;;5032303;28;20455;-68
2021/07/15 08:11:09;;;;;;;1.33;0.90;;;17.70;99.70;;;;;;5032725;28;20539;-67
2021/07/15 08:13:37;;;;;;;1.30;0.90;;;17.70;99.70;;;;;;5032350;28;20449;-67
2021/07/15 08:16:03;;;;;;;1.20;0.80;;;17.80;99.70;;;;;;5032466;28;20452;-67
2021/07/15 08:18:30;;;;;;;1.30;1.00;;;17.80;99.70;;;;;;5032138;28;20820;-67
2021/07/15 08:20:57;;;;;;;1.20;0.90;;;18.10;99.70;;;;;;5032295;28;21049;-67
2021/07/15 08:23:24;;;;;;;2.80;1.10;;;17.90;99.70;;;;;;5032050;28;20894;-67
2021/07/15 08:25:50;;;;;;;1.20;0.90;;;18.10;99.70;;;;;;5032188;28;20459;-67
2021/07/15 08:28:17;;;;;;;1.20;1.00;;;18.10;99.70;;;;;;5032047;28;20746;-67
2021/07/15 08:30:45;;;;;;;1.30;1.00;;;18.30;99.70;;;;;;5031644;28;20473;-67
2021/07/15 08:33:12;;;;;;;1.20;0.97;;;18.30;99.70;;;;;;5031823;28;20951;-67
2021/07/15 08:35:39;;;;;;;1.63;1.00;;;18.30;99.70;;;;;;5031885;28;20453;-67
2021/07/15 08:38:06;;;;;;;1.20;0.90;;;18.30;99.70;;;;;;5031943;28;20775;-68
2021/07/15 08:40:33;;;;;;;1.23;0.97;;;18.30;99.70;;;;;;5032082;28;20468;-67
2021/07/15 08:43:00;;;;;;;3.67;1.87;;;18.30;99.70;;;;;;5032052;28;20919;-67
2021/07/15 08:45:27;;;;;;;1.20;0.90;;;18.20;99.70;;;;;;5030975;28;20456;-67
2021/07/15 08:47:56;;;;;;;1.40;1.00;;;18.10;99.70;;;;;;5032103;28;20458;-67
2021/07/15 08:50:23;;;;;;;1.20;1.00;;;18.10;99.70;;;;;;5031808;28;21043;-68
2021/07/15 08:52:51;;;;;;;1.50;1.20;;;18.10;99.70;;;;;;5031961;28;20849;-67
2021/07/15 08:56:36;;;;;;;1.87;1.20;;;18.10;99.70;;;;;;5030189;28;20444;-67
2021/07/15 08:58:08;;;;;;;1.50;1.20;;;18.30;99.70;;;;;;5031834;28;20451;-66
2021/07/15 09:00:34;;;;;;;1.30;1.10;;;18.40;99.70;;;;;;5029143;28;20480;-67
2021/07/15 09:03:03;;;;;;;1.30;1.10;;;18.40;99.70;;;;;;5025497;28;20514;-67
2021/07/15 09:05:30;;;;;;;2.53;1.30;;;18.20;99.70;;;;;;5024122;28;20460;-67
2021/07/15 09:07:56;;;;;;;1.97;1.60;;;18.30;99.70;;;;;;5026195;28;20448;-67
2021/07/15 09:10:23;;;;;;;1.50;1.07;;;18.30;99.70;;;;;;5027941;28;20465;-67
2021/07/15 09:12:50;;;;;;;1.40;1.10;;;18.20;99.70;;;;;;5029588;28;20444;-67
2021/07/15 09:15:17;;;;;;;1.50;1.20;;;18.10;99.70;;;;;;5029029;28;20440;-67
2021/07/15 09:17:43;;;;;;;2.07;1.20;;;18.00;99.70;;;;;;5030525;28;20444;-67
2021/07/15 09:20:19;;;;;;;1.50;1.10;;;18.00;99.70;;;;;;5031175;28;20447;-67
2021/07/15 09:23:01;;;;;;;2.40;1.10;;;18.00;99.70;;;;;;5031404;28;20553;-67
2021/07/15 09:25:29;;;;;;;1.50;1.07;;;18.00;99.70;;;;;;5030801;28;20830;-67
2021/07/15 09:27:56;;;;;;;1.80;1.30;;;18.20;99.70;;;;;;5030863;28;20839;-67
2021/07/15 09:30:23;;;;;;;2.00;1.10;;;18.30;99.70;;;;;;5030543;28;20790;-67
2021/07/15 09:32:51;;;;;;;1.40;1.07;;;18.50;99.70;;;;;;5030553;28;20444;-66
2021/07/15 09:35:31;;;;;;;1.87;1.83;;;18.60;99.70;;;;;;5023950;28;20819;-67
2021/07/15 09:38:12;;;;;;;1.30;1.00;;;18.60;99.70;;;;;;5024715;28;20552;-66
2021/07/15 09:40:41;;;;;;;1.50;1.27;;;18.90;99.70;;;;;;5025139;28;20460;-66
2021/07/15 09:43:19;;;;;;;2.13;1.10;;;19.00;99.70;;;;;;5021821;28;20484;-67
2021/07/15 09:45:48;;;;;;;1.70;1.40;;;19.00;99.70;;;;;;5023408;28;20470;-67
2021/07/15 09:48:17;;;;;;;1.50;1.00;;;19.00;99.70;;;;;;5025003;28;20448;-66
2021/07/15 09:50:45;;;;;;;1.80;1.20;;;18.90;99.70;;;;;;5024286;28;20473;-67
2021/07/15 09:53:20;;;;;;;1.37;1.00;;;18.90;99.70;;;;;;5023569;28;20999;-67
2021/07/15 09:55:48;;;;;;;1.97;1.40;;;19.10;99.70;;;;;;5023361;28;20791;-67
2021/07/15 09:58:15;;;;;;;1.20;1.00;;;19.20;99.70;;;;;;5025822;28;20452;-67
2021/07/15 10:00:44;;;;;;;2.67;1.10;;;19.20;99.70;;;;;;5030686;28;20460;-67
2021/07/15 10:03:13;;;;;;;2.50;1.20;;;19.30;99.70;;;;;;5030254;28;21010;-67
2021/07/15 10:05:52;;;;;;;1.50;1.10;;;19.50;99.70;;;;;;5027905;28;20844;-67
2021/07/15 10:08:25;;;;;;;2.03;1.10;;;19.30;99.70;;;;;;5030351;28;20451;-67
2021/07/15 10:10:53;;;;;;;1.30;1.07;;;19.50;99.70;;;;;;5030441;28;20534;-67
2021/07/15 10:13:21;;;;;;;2.47;1.10;;;19.50;99.70;;;;;;5030221;28;20510;-67
2021/07/15 10:15:49;;;;;;;1.50;1.17;;;19.50;99.70;;;;;;5029951;28;20451;-67
2021/07/15 10:18:34;;;;;;;1.53;1.10;;;19.40;99.70;;;;;;5030059;28;20460;-67
2021/07/15 10:21:03;;;;;;;1.37;1.10;;;19.20;99.70;;;;;;5030032;28;20552;-67
2021/07/15 10:23:35;;;;;;;1.80;1.20;;;19.10;99.70;;;;;;5029926;28;20484;-67
2021/07/15 10:26:02;;;;;;;1.60;1.27;;;18.80;99.70;;;;;;5029786;28;20452;-67
2021/07/15 10:28:29;;;;;;;1.50;1.20;;;18.80;99.70;;;;;;5029962;28;20448;-67
2021/07/15 10:30:58;;;;;;;1.60;1.17;;;18.90;99.70;;;;;;5029577;28;20865;-67
2021/07/15 10:33:25;;;;;;;1.93;1.37;;;19.00;99.70;;;;;;5029876;28;20443;-67
2021/07/15 10:35:52;;;;;;;1.50;1.10;;;19.00;99.70;;;;;;5030121;28;20444;-67
2021/07/15 10:38:21;;;;;;;1.50;1.10;;;19.00;99.70;;;;;;5029621;28;20930;-67
2021/07/15 10:40:51;;;;;;;2.10;1.20;;;19.10;99.70;;;;;;5029171;28;20465;-67
2021/07/15 10:43:18;;;;;;;1.70;1.30;;;19.00;99.70;;;;;;5029864;28;20592;-67
2021/07/15 10:45:45;;;;;;;2.40;1.30;;;19.10;99.70;;;;;;5026946;28;20891;-67
2021/07/15 10:48:13;;;;;;;1.60;1.37;;;19.20;99.70;;;;;;5029907;28;20452;-67
2021/07/15 10:50:40;;;;;;;3.00;1.30;;;19.30;99.70;;;;;;5029879;28;20465;-67
2021/07/15 10:53:08;;;;;;;1.40;1.10;;;19.60;99.70;;;;;;5029905;28;20806;-67
2021/07/15 10:55:36;;;;;;;1.70;1.20;;;19.80;99.70;;;;;;5029349;28;20445;-67
2021/07/15 10:58:04;;;;;;;1.70;1.10;;;19.90;99.70;;;;;;5029735;28;20939;-67
2021/07/15 11:00:31;;;;;;;1.80;1.10;;;20.00;99.70;;;;;;5029565;28;20522;-67
2021/07/15 11:03:11;;;;;;;1.30;1.10;;;20.10;99.70;;;;;;5029918;28;20559;-67
2021/07/15 11:05:51;;;;;;;1.50;1.20;;;20.00;99.70;;;;;;5029276;28;20944;-67
2021/07/15 11:08:19;;;;;;;1.40;1.10;;;20.00;99.70;;;;;;5029857;28;20452;-67
2021/07/15 11:10:59;;;;;;;2.97;1.50;;;19.90;99.70;;;;;;5029390;28;20821;-67
2021/07/15 11:13:28;;;;;;;1.87;1.20;;;19.80;99.70;;;;;;5029860;28;20883;-67
2021/07/15 11:15:56;;;;;;;1.50;1.20;;;19.80;99.70;;;;;;5029276;28;20922;-65
2021/07/15 11:18:54;;;;;;;2.60;1.23;;;19.80;99.70;;;;;;5030866;28;20547;-65
2021/07/15 11:21:36;;;;;;;2.10;1.40;;;19.80;99.70;;;;;;5033390;28;20559;-67
2021/07/15 11:24:51;;;;;;;1.87;1.30;;;19.80;99.70;;;;;;5033489;28;20476;-66
2021/07/15 11:27:34;;;;;;;2.17;1.10;;;19.80;99.70;;;;;;5031503;28;20460;-67
2021/07/15 11:30:01;;;;;;;1.90;1.30;;;20.00;99.70;;;;;;5033037;28;20440;-67
2021/07/15 11:32:29;;;;;;;2.70;1.30;;;19.90;99.70;;;;;;5052258;22;20499;-67
2021/07/15 11:34:56;;;;;;;2.07;1.20;;;20.10;99.70;;;;;;5051803;28;20440;-67
2021/07/15 11:37:39;;;;;;;1.80;1.20;;;20.20;99.70;;;;;;5053221;28;20827;-67
2021/07/15 11:40:22;;;;;;;1.80;1.30;;;20.40;99.70;;;;;;5053302;28;20448;-67
2021/07/15 11:42:50;;;;;;;1.87;1.43;;;20.50;99.70;;;;;;5052831;28;20480;-68
2021/07/15 11:45:17;;;;;;;2.07;1.50;;;20.50;99.70;;;;;;5052875;28;20478;-67
2021/07/15 11:47:48;;;;;;;4.23;1.30;;;20.60;99.70;;;;;;5053234;28;20443;-67
2021/07/15 11:50:30;;;;;;;1.50;1.23;;;20.50;99.70;;;;;;5053252;28;20505;-67
2021/07/15 11:53:16;;;;;;;1.30;1.10;;;20.40;99.70;;;;;;5053067;28;20467;-67
2021/07/15 11:55:44;;;;;;;1.70;1.30;;;20.60;99.70;;;;;;5052768;28;20458;-67
2021/07/15 11:58:46;;;;;;;1.47;1.20;;;20.70;99.70;;;;;;5052599;28;20541;-67
2021/07/15 12:01:20;;;;;;;1.47;1.17;;;20.40;99.70;;;;;;5047817;28;20977;-68
2021/07/15 12:04:00;;;;;;;1.67;1.20;;;20.30;99.70;;;;;;5052565;28;20494;-67
2021/07/15 12:06:27;;;;;;;1.70;1.30;;;20.30;99.70;;;;;;5052635;28;20455;-67
2021/07/15 12:08:53;;;;;;;1.47;1.20;;;20.20;99.70;;;;;;5052683;28;20443;-67
2021/07/15 12:11:21;;;;;;;1.57;1.20;;;20.20;99.70;;;;;;5052770;28;20463;-67
2021/07/15 12:13:51;;;;;;;1.57;1.20;;;20.20;99.70;;;;;;5052641;28;20441;-67
2021/07/15 12:16:21;;;;;;;1.40;1.10;;;20.30;99.70;;;;;;5052754;28;20498;-67
2021/07/15 12:18:48;;;;;;;1.43;1.20;;;20.20;99.70;;;;;;5052401;28;20853;-67
2021/07/15 12:21:18;;;;;;;1.53;1.10;;;20.40;99.70;;;;;;5052749;28;20474;-67
2021/07/15 12:23:47;;;;;;;2.50;1.40;;;20.30;99.70;;;;;;5052289;28;20476;-67
2021/07/15 12:26:18;;;;;;;1.30;1.10;;;20.20;99.70;;;;;;5052376;28;20451;-67
2021/07/15 12:28:46;;;;;;;1.50;1.03;;;20.30;99.70;;;;;;5031855;28;20966;-67
2021/07/15 12:31:15;;;;;;;2.00;1.30;;;20.30;99.70;;;;;;5032563;28;20986;-67
2021/07/15 12:33:44;;;;;;;2.60;1.10;;;20.20;99.70;;;;;;5032250;28;20532;-67
2021/07/15 12:36:14;;;;;;;1.80;1.20;;;20.30;99.70;;;;;;5032286;28;20444;-67
2021/07/15 12:38:42;;;;;;;1.70;1.23;;;20.30;99.70;;;;;;5032293;28;20468;-67
2021/07/15 12:41:14;;;;;;;1.80;1.30;;;20.20;99.70;;;;;;5032444;28;20540;-67
2021/07/15 12:43:44;;;;;;;1.40;1.10;;;20.10;99.70;;;;;;5031999;28;20484;-66
2021/07/15 12:46:12;;;;;;;1.70;1.17;;;19.90;99.70;;;;;;5032239;28;20445;-67
2021/07/15 12:48:41;;;;;;;1.30;1.10;;;20.00;99.70;;;;;;5032622;28;20526;-67
2021/07/15 12:51:09;;;;;;;1.77;1.23;;;20.00;99.70;;;;;;5032369;28;20440;-66
2021/07/15 12:53:38;;;;;;;1.57;1.20;;;20.10;99.70;;;;;;5044727;28;20444;-66
2021/07/15 12:56:05;;;;;;;1.30;1.10;;;20.10;99.70;;;;;;5051652;28;20478;-67
2021/07/15 12:58:32;;;;;;;1.30;1.13;;;20.30;99.70;;;;;;5052074;28;20542;-67